sensor_id;sensor_type;location;lat;lon;timestamp;pressure;altitude;pressure_sealevel;temperature;humidity
71457;BME280;59263;48.160;11.752;2023-12-14T00:01:35;94850.03;;;4.95;100.00
71457;BME280;59263;48.160;11.752;2023-12-14T00:04:01;94845.31;;;4.90;100.00
71457;BME280;59263;48.160;11.752;2023-12-14T00:06:27;94848.81;;;4.89;100.00
71457;BME280;59263;48.160;11.752;2023-12-14T00:08:53;94837.63;;;4.90;100.00
71457;BME280;59263;48.160;11.752;2023-12-14T00:11:18;94843.16;;;4.95;100.00
71457;BME280;59263;48.160;11.752;2023-12-14T00:13:43;94852.59;;;4.95;100.00
71457;BME280;59263;48.160;11.752;2023-12-14T00:16:09;94852.06;;;4.91;100.00
71457;BME280;59263;48.160;11.752;2023-12-14T00:18:35;94851.53;;;4.97;100.00
71457;BME280;59263;48.160;11.752;2023-12-14T00:21:01;94862.56;;;4.88;100.00
71457;BME280;59263;48.160;11.752;2023-12-14T00:23:26;94862.72;;;4.87;100.00
71457;BME280;59263;48.160;11.752;2023-12-14T00:25:51;94862.06;;;4.94;100.00
71457;BME280;59263;48.160;11.752;2023-12-14T00:28:17;94870.16;;;4.99;100.00
71457;BME280;59263;48.160;11.752;2023-12-14T00:30:42;94866.91;;;4.97;100.00
71457;BME280;59263;48.160;11.752;2023-12-14T00:33:08;94859.22;;;4.97;100.00
71457;BME280;59263;48.160;11.752;2023-12-14T00:35:33;94867.84;;;4.96;100.00
71457;BME280;59263;48.160;11.752;2023-12-14T00:37:58;94868.78;;;4.95;100.00
71457;BME280;59263;48.160;11.752;2023-12-14T00:40:24;94879.75;;;4.97;100.00
71457;BME280;59263;48.160;11.752;2023-12-14T00:42:50;94884.88;;;4.97;100.00
71457;BME280;59263;48.160;11.752;2023-12-14T00:45:15;94889.81;;;4.89;100.00
71457;BME280;59263;48.160;11.752;2023-12-14T00:47:41;94891.19;;;4.93;100.00
71457;BME280;59263;48.160;11.752;2023-12-14T00:50:06;94894.94;;;4.89;100.00
71457;BME280;59263;48.160;11.752;2023-12-14T00:52:32;94903.06;;;4.94;100.00
71457;BME280;59263;48.160;11.752;2023-12-14T00:54:57;94906.28;;;4.87;100.00
71457;BME280;59263;48.160;11.752;2023-12-14T00:57:23;94909.22;;;4.82;100.00
71457;BME280;59263;48.160;11.752;2023-12-14T00:59:48;94909.91;;;4.84;100.00
71457;BME280;59263;48.160;11.752;2023-12-14T01:02:13;94918.38;;;4.75;100.00
71457;BME280;59263;48.160;11.752;2023-12-14T01:04:39;94929.47;;;4.85;100.00
71457;BME280;59263;48.160;11.752;2023-12-14T01:07:04;94929.84;;;4.80;100.00
71457;BME280;59263;48.160;11.752;2023-12-14T01:09:30;94927.84;;;4.84;100.00
71457;BME280;59263;48.160;11.752;2023-12-14T01:11:55;94936.22;;;4.86;100.00
71457;BME280;59263;48.160;11.752;2023-12-14T01:14:20;94930.41;;;4.84;100.00
71457;BME280;59263;48.160;11.752;2023-12-14T01:16:46;94937.59;;;4.90;100.00
71457;BME280;59263;48.160;11.752;2023-12-14T01:19:11;94935.94;;;4.89;100.00
71457;BME280;59263;48.160;11.752;2023-12-14T01:21:36;94948.94;;;4.97;100.00
71457;BME280;59263;48.160;11.752;2023-12-14T01:24:02;94950.81;;;4.95;100.00
71457;BME280;59263;48.160;11.752;2023-12-14T01:26:27;94953.25;;;4.97;100.00
71457;BME280;59263;48.160;11.752;2023-12-14T01:28:53;94951.50;;;4.97;100.00
71457;BME280;59263;48.160;11.752;2023-12-14T01:31:18;94958.50;;;4.95;100.00
71457;BME280;59263;48.160;11.752;2023-12-14T01:33:44;94959.97;;;4.88;100.00
71457;BME280;59263;48.160;11.752;2023-12-14T01:36:11;94957.66;;;4.85;100.00
71457;BME280;59263;48.160;11.752;2023-12-14T01:38:37;94960.25;;;4.95;100.00
71457;BME280;59263;48.160;11.752;2023-12-14T01:41:03;94968.91;;;4.94;100.00
71457;BME280;59263;48.160;11.752;2023-12-14T01:43:28;94969.16;;;5.00;100.00
71457;BME280;59263;48.160;11.752;2023-12-14T01:45:53;94971.31;;;4.95;100.00
71457;BME280;59263;48.160;11.752;2023-12-14T01:48:19;94980.63;;;4.96;100.00
71457;BME280;59263;48.160;11.752;2023-12-14T01:50:44;94981.56;;;4.95;100.00
71457;BME280;59263;48.160;11.752;2023-12-14T01:53:09;94972.38;;;4.83;100.00
71457;BME280;59263;48.160;11.752;2023-12-14T01:55:35;94994.22;;;4.87;100.00
71457;BME280;59263;48.160;11.752;2023-12-14T01:58:00;94994.47;;;4.84;100.00
71457;BME280;59263;48.160;11.752;2023-12-14T02:00:46;94997.03;;;4.84;100.00
71457;BME280;59263;48.160;11.752;2023-12-14T02:03:16;94998.75;;;4.74;100.00
71457;BME280;59263;48.160;11.752;2023-12-14T02:05:41;95004.69;;;4.74;100.00
71457;BME280;59263;48.160;11.752;2023-12-14T02:08:07;95002.25;;;4.73;100.00
71457;BME280;59263;48.160;11.752;2023-12-14T02:10:32;95010.34;;;4.68;100.00
71457;BME280;59263;48.160;11.752;2023-12-14T02:12:58;94999.34;;;4.56;100.00
71457;BME280;59263;48.160;11.752;2023-12-14T02:15:23;95015.41;;;4.58;100.00
71457;BME280;59263;48.160;11.752;2023-12-14T02:17:48;95020.28;;;4.61;100.00
71457;BME280;59263;48.160;11.752;2023-12-14T02:20:14;95005.16;;;4.58;100.00
71457;BME280;59263;48.160;11.752;2023-12-14T02:22:50;95022.97;;;4.60;100.00
71457;BME280;59263;48.160;11.752;2023-12-14T02:25:16;95015.06;;;4.52;100.00
71457;BME280;59263;48.160;11.752;2023-12-14T02:27:41;95029.41;;;4.54;100.00
71457;BME280;59263;48.160;11.752;2023-12-14T02:30:07;95034.38;;;4.56;100.00
71457;BME280;59263;48.160;11.752;2023-12-14T02:32:32;95025.31;;;4.52;100.00
71457;BME280;59263;48.160;11.752;2023-12-14T02:34:58;95037.31;;;4.51;100.00
71457;BME280;59263;48.160;11.752;2023-12-14T02:37:23;95041.63;;;4.51;100.00
71457;BME280;59263;48.160;11.752;2023-12-14T02:39:48;95035.28;;;4.45;100.00
71457;BME280;59263;48.160;11.752;2023-12-14T02:42:14;95042.03;;;4.46;100.00
71457;BME280;59263;48.160;11.752;2023-12-14T02:44:39;95038.56;;;4.36;100.00
71457;BME280;59263;48.160;11.752;2023-12-14T02:47:04;95050.31;;;4.39;100.00
71457;BME280;59263;48.160;11.752;2023-12-14T02:49:30;95049.25;;;4.41;100.00
71457;BME280;59263;48.160;11.752;2023-12-14T02:51:55;95049.53;;;4.38;100.00
71457;BME280;59263;48.160;11.752;2023-12-14T02:54:20;95045.66;;;4.23;100.00
71457;BME280;59263;48.160;11.752;2023-12-14T02:56:46;95058.38;;;4.34;100.00
71457;BME280;59263;48.160;11.752;2023-12-14T02:59:11;95056.75;;;4.33;100.00
71457;BME280;59263;48.160;11.752;2023-12-14T03:01:36;95058.75;;;4.29;100.00
71457;BME280;59263;48.160;11.752;2023-12-14T03:04:02;95062.09;;;4.30;100.00
71457;BME280;59263;48.160;11.752;2023-12-14T03:06:27;95062.06;;;4.41;100.00
71457;BME280;59263;48.160;11.752;2023-12-14T03:08:52;95063.84;;;4.29;100.00
71457;BME280;59263;48.160;11.752;2023-12-14T03:11:24;95069.53;;;4.33;100.00
71457;BME280;59263;48.160;11.752;2023-12-14T03:13:49;95073.75;;;4.34;100.00
71457;BME280;59263;48.160;11.752;2023-12-14T03:16:15;95083.25;;;4.43;100.00
71457;BME280;59263;48.160;11.752;2023-12-14T03:18:42;95079.34;;;4.28;100.00
71457;BME280;59263;48.160;11.752;2023-12-14T03:21:09;95061.25;;;4.20;100.00
71457;BME280;59263;48.160;11.752;2023-12-14T03:23:34;95089.38;;;4.31;100.00
71457;BME280;59263;48.160;11.752;2023-12-14T03:25:59;95092.59;;;4.33;100.00
71457;BME280;59263;48.160;11.752;2023-12-14T03:28:25;95095.88;;;4.35;100.00
71457;BME280;59263;48.160;11.752;2023-12-14T03:30:50;95093.41;;;4.33;100.00
71457;BME280;59263;48.160;11.752;2023-12-14T03:33:15;95111.69;;;4.29;100.00
71457;BME280;59263;48.160;11.752;2023-12-14T03:35:41;95111.84;;;4.48;100.00
71457;BME280;59263;48.160;11.752;2023-12-14T03:38:07;95114.56;;;4.47;100.00
71457;BME280;59263;48.160;11.752;2023-12-14T03:40:33;95124.97;;;4.34;100.00
71457;BME280;59263;48.160;11.752;2023-12-14T03:42:58;95132.28;;;4.39;100.00
71457;BME280;59263;48.160;11.752;2023-12-14T03:45:23;95135.22;;;4.34;100.00
71457;BME280;59263;48.160;11.752;2023-12-14T03:47:49;95135.53;;;4.41;100.00
71457;BME280;59263;48.160;11.752;2023-12-14T03:50:14;95136.59;;;4.38;100.00
71457;BME280;59263;48.160;11.752;2023-12-14T03:52:40;95133.91;;;4.40;100.00
71457;BME280;59263;48.160;11.752;2023-12-14T03:55:06;95137.72;;;4.45;100.00
71457;BME280;59263;48.160;11.752;2023-12-14T03:57:31;95142.97;;;4.44;100.00
71457;BME280;59263;48.160;11.752;2023-12-14T03:59:56;95154.06;;;4.33;100.00
71457;BME280;59263;48.160;11.752;2023-12-14T04:02:22;95150.06;;;4.40;100.00
71457;BME280;59263;48.160;11.752;2023-12-14T04:04:47;95157.38;;;4.45;100.00
71457;BME280;59263;48.160;11.752;2023-12-14T04:07:13;95156.59;;;4.44;100.00
71457;BME280;59263;48.160;11.752;2023-12-14T04:09:38;95157.09;;;4.38;100.00
71457;BME280;59263;48.160;11.752;2023-12-14T04:12:04;95154.63;;;4.36;100.00
71457;BME280;59263;48.160;11.752;2023-12-14T04:14:30;95162.69;;;4.32;100.00
71457;BME280;59263;48.160;11.752;2023-12-14T04:16:55;95161.75;;;4.33;100.00
71457;BME280;59263;48.160;11.752;2023-12-14T04:19:20;95167.94;;;4.30;100.00
71457;BME280;59263;48.160;11.752;2023-12-14T04:21:47;95176.66;;;4.28;100.00
71457;BME280;59263;48.160;11.752;2023-12-14T04:24:13;95183.41;;;4.29;100.00
71457;BME280;59263;48.160;11.752;2023-12-14T04:26:38;95191.25;;;4.48;100.00
71457;BME280;59263;48.160;11.752;2023-12-14T04:29:05;95186.91;;;4.28;100.00
71457;BME280;59263;48.160;11.752;2023-12-14T04:31:31;95203.06;;;4.40;100.00
71457;BME280;59263;48.160;11.752;2023-12-14T04:33:56;95208.97;;;4.40;100.00
71457;BME280;59263;48.160;11.752;2023-12-14T04:36:22;95205.81;;;4.48;100.00
71457;BME280;59263;48.160;11.752;2023-12-14T04:38:47;95199.22;;;4.45;100.00
71457;BME280;59263;48.160;11.752;2023-12-14T04:41:13;95212.00;;;4.45;100.00
71457;BME280;59263;48.160;11.752;2023-12-14T04:43:38;95211.31;;;4.43;100.00
71457;BME280;59263;48.160;11.752;2023-12-14T04:46:04;95211.06;;;4.46;100.00
71457;BME280;59263;48.160;11.752;2023-12-14T04:48:31;95220.63;;;4.33;100.00
71457;BME280;59263;48.160;11.752;2023-12-14T04:50:56;95232.75;;;4.42;100.00
71457;BME280;59263;48.160;11.752;2023-12-14T04:53:22;95234.16;;;4.35;100.00
71457;BME280;59263;48.160;11.752;2023-12-14T04:55:47;95239.50;;;4.32;100.00
71457;BME280;59263;48.160;11.752;2023-12-14T04:58:12;95243.00;;;4.31;100.00
71457;BME280;59263;48.160;11.752;2023-12-14T05:00:38;95244.63;;;4.32;100.00
71457;BME280;59263;48.160;11.752;2023-12-14T05:03:03;95240.91;;;4.25;100.00
71457;BME280;59263;48.160;11.752;2023-12-14T05:05:29;95249.19;;;4.17;100.00
71457;BME280;59263;48.160;11.752;2023-12-14T05:07:54;95256.50;;;4.33;100.00
71457;BME280;59263;48.160;11.752;2023-12-14T05:10:19;95264.41;;;4.19;100.00
71457;BME280;59263;48.160;11.752;2023-12-14T05:12:45;95267.44;;;4.35;100.00
71457;BME280;59263;48.160;11.752;2023-12-14T05:15:10;95255.34;;;4.15;100.00
71457;BME280;59263;48.160;11.752;2023-12-14T05:17:36;95273.63;;;4.21;100.00
71457;BME280;59263;48.160;11.752;2023-12-14T05:20:03;95278.88;;;4.31;100.00
71457;BME280;59263;48.160;11.752;2023-12-14T05:22:29;95281.66;;;4.17;100.00
71457;BME280;59263;48.160;11.752;2023-12-14T05:24:55;95292.13;;;4.13;100.00
71457;BME280;59263;48.160;11.752;2023-12-14T05:27:20;95284.44;;;4.13;100.00
71457;BME280;59263;48.160;11.752;2023-12-14T05:29:46;95288.19;;;4.09;100.00
71457;BME280;59263;48.160;11.752;2023-12-14T05:32:11;95303.31;;;4.12;100.00
71457;BME280;59263;48.160;11.752;2023-12-14T05:34:37;95308.66;;;4.21;100.00
71457;BME280;59263;48.160;11.752;2023-12-14T05:37:02;95303.75;;;4.18;100.00
71457;BME280;59263;48.160;11.752;2023-12-14T05:39:28;95314.94;;;4.28;100.00
71457;BME280;59263;48.160;11.752;2023-12-14T05:41:54;95307.63;;;4.23;100.00
71457;BME280;59263;48.160;11.752;2023-12-14T05:44:19;95318.31;;;4.17;100.00
71457;BME280;59263;48.160;11.752;2023-12-14T05:46:44;95318.19;;;4.19;100.00
71457;BME280;59263;48.160;11.752;2023-12-14T05:49:10;95326.59;;;4.21;100.00
71457;BME280;59263;48.160;11.752;2023-12-14T05:51:35;95327.97;;;4.13;100.00
71457;BME280;59263;48.160;11.752;2023-12-14T05:54:02;95341.94;;;4.21;100.00
71457;BME280;59263;48.160;11.752;2023-12-14T05:56:27;95332.16;;;4.37;100.00
71457;BME280;59263;48.160;11.752;2023-12-14T05:58:53;95343.09;;;4.39;100.00
71457;BME280;59263;48.160;11.752;2023-12-14T06:01:18;95352.41;;;4.40;100.00
71457;BME280;59263;48.160;11.752;2023-12-14T06:03:44;95362.44;;;4.32;100.00
71457;BME280;59263;48.160;11.752;2023-12-14T06:06:10;95363.81;;;4.36;100.00
71457;BME280;59263;48.160;11.752;2023-12-14T06:08:37;95355.69;;;4.42;100.00
71457;BME280;59263;48.160;11.752;2023-12-14T06:11:02;95373.84;;;4.50;100.00
71457;BME280;59263;48.160;11.752;2023-12-14T06:13:28;95371.75;;;4.44;100.00
71457;BME280;59263;48.160;11.752;2023-12-14T06:15:53;95373.38;;;4.45;100.00
71457;BME280;59263;48.160;11.752;2023-12-14T06:18:18;95380.00;;;4.36;100.00
71457;BME280;59263;48.160;11.752;2023-12-14T06:20:44;95378.50;;;4.34;100.00
71457;BME280;59263;48.160;11.752;2023-12-14T06:23:10;95384.09;;;4.28;100.00
71457;BME280;59263;48.160;11.752;2023-12-14T06:25:35;95394.19;;;4.29;100.00
71457;BME280;59263;48.160;11.752;2023-12-14T06:28:00;95390.59;;;4.43;100.00
71457;BME280;59263;48.160;11.752;2023-12-14T06:30:26;95392.00;;;4.47;100.00
71457;BME280;59263;48.160;11.752;2023-12-14T06:32:51;95399.22;;;4.42;100.00
71457;BME280;59263;48.160;11.752;2023-12-14T06:35:16;95406.34;;;4.39;100.00
71457;BME280;59263;48.160;11.752;2023-12-14T06:37:42;95405.97;;;4.43;100.00
71457;BME280;59263;48.160;11.752;2023-12-14T06:40:08;95396.31;;;4.24;100.00
71457;BME280;59263;48.160;11.752;2023-12-14T06:42:34;95408.53;;;4.32;100.00
71457;BME280;59263;48.160;11.752;2023-12-14T06:45:02;95424.13;;;4.40;100.00
71457;BME280;59263;48.160;11.752;2023-12-14T06:47:28;95419.50;;;4.34;100.00
71457;BME280;59263;48.160;11.752;2023-12-14T06:49:53;95405.03;;;4.22;100.00
71457;BME280;59263;48.160;11.752;2023-12-14T06:52:18;95434.28;;;4.30;100.00
71457;BME280;59263;48.160;11.752;2023-12-14T06:54:44;95432.75;;;4.28;100.00
71457;BME280;59263;48.160;11.752;2023-12-14T06:57:09;95447.19;;;4.40;100.00
71457;BME280;59263;48.160;11.752;2023-12-14T06:59:35;95449.97;;;4.37;100.00
71457;BME280;59263;48.160;11.752;2023-12-14T07:02:00;95443.34;;;4.34;100.00
71457;BME280;59263;48.160;11.752;2023-12-14T07:04:25;95446.56;;;4.25;100.00
71457;BME280;59263;48.160;11.752;2023-12-14T07:06:51;95451.59;;;4.27;100.00
71457;BME280;59263;48.160;11.752;2023-12-14T07:09:17;95452.03;;;4.21;100.00
71457;BME280;59263;48.160;11.752;2023-12-14T07:11:43;95453.88;;;4.19;100.00
71457;BME280;59263;48.160;11.752;2023-12-14T07:14:08;95454.41;;;4.35;100.00
71457;BME280;59263;48.160;11.752;2023-12-14T07:16:34;95463.94;;;4.44;100.00
71457;BME280;59263;48.160;11.752;2023-12-14T07:18:59;95470.13;;;4.42;100.00
71457;BME280;59263;48.160;11.752;2023-12-14T07:21:24;95476.53;;;4.36;100.00
71457;BME280;59263;48.160;11.752;2023-12-14T07:23:50;95481.88;;;4.44;100.00
71457;BME280;59263;48.160;11.752;2023-12-14T07:26:15;95476.28;;;4.39;100.00
71457;BME280;59263;48.160;11.752;2023-12-14T07:28:40;95480.47;;;4.29;100.00
71457;BME280;59263;48.160;11.752;2023-12-14T07:31:06;95497.97;;;4.46;100.00
71457;BME280;59263;48.160;11.752;2023-12-14T07:33:31;95500.31;;;4.60;100.00
71457;BME280;59263;48.160;11.752;2023-12-14T07:35:56;95506.84;;;4.53;100.00
71457;BME280;59263;48.160;11.752;2023-12-14T07:38:22;95509.63;;;4.61;100.00
71457;BME280;59263;48.160;11.752;2023-12-14T07:40:47;95515.91;;;4.57;100.00
71457;BME280;59263;48.160;11.752;2023-12-14T07:43:15;95522.69;;;4.70;100.00
71457;BME280;59263;48.160;11.752;2023-12-14T07:45:41;95520.13;;;4.70;100.00
71457;BME280;59263;48.160;11.752;2023-12-14T07:48:06;95526.88;;;4.71;100.00
71457;BME280;59263;48.160;11.752;2023-12-14T07:50:32;95501.13;;;4.61;100.00
71457;BME280;59263;48.160;11.752;2023-12-14T07:52:57;95524.81;;;4.76;100.00
71457;BME280;59263;48.160;11.752;2023-12-14T07:55:22;95530.97;;;4.73;100.00
71457;BME280;59263;48.160;11.752;2023-12-14T07:57:48;95540.78;;;4.79;100.00
71457;BME280;59263;48.160;11.752;2023-12-14T08:00:14;95538.06;;;4.81;100.00
71457;BME280;59263;48.160;11.752;2023-12-14T08:02:40;95537.84;;;4.84;100.00
71457;BME280;59263;48.160;11.752;2023-12-14T08:05:07;95546.00;;;4.89;100.00
71457;BME280;59263;48.160;11.752;2023-12-14T08:07:32;95549.72;;;4.85;100.00
71457;BME280;59263;48.160;11.752;2023-12-14T08:09:58;95546.84;;;4.90;100.00
71457;BME280;59263;48.160;11.752;2023-12-14T08:12:24;95554.78;;;4.98;100.00
71457;BME280;59263;48.160;11.752;2023-12-14T08:14:50;95576.53;;;4.92;100.00
71457;BME280;59263;48.160;11.752;2023-12-14T08:17:15;95568.41;;;4.98;100.00
71457;BME280;59263;48.160;11.752;2023-12-14T08:19:41;95565.13;;;5.07;100.00
71457;BME280;59263;48.160;11.752;2023-12-14T08:22:07;95569.69;;;5.04;100.00
71457;BME280;59263;48.160;11.752;2023-12-14T08:24:36;95572.81;;;4.96;100.00
71457;BME280;59263;48.160;11.752;2023-12-14T08:27:01;95566.78;;;5.08;100.00
71457;BME280;59263;48.160;11.752;2023-12-14T08:29:27;95577.50;;;5.14;100.00
71457;BME280;59263;48.160;11.752;2023-12-14T08:31:52;95564.69;;;5.02;100.00
71457;BME280;59263;48.160;11.752;2023-12-14T08:34:18;95584.38;;;5.24;100.00
71457;BME280;59263;48.160;11.752;2023-12-14T08:36:44;95587.31;;;5.31;100.00
71457;BME280;59263;48.160;11.752;2023-12-14T08:39:09;95586.59;;;5.29;100.00
71457;BME280;59263;48.160;11.752;2023-12-14T08:41:35;95600.13;;;5.31;100.00
71457;BME280;59263;48.160;11.752;2023-12-14T08:44:00;95612.75;;;5.34;100.00
71457;BME280;59263;48.160;11.752;2023-12-14T08:46:25;95602.22;;;5.26;100.00
71457;BME280;59263;48.160;11.752;2023-12-14T08:48:51;95614.38;;;5.35;100.00
71457;BME280;59263;48.160;11.752;2023-12-14T08:51:17;95621.34;;;5.33;100.00
71457;BME280;59263;48.160;11.752;2023-12-14T08:53:44;95628.59;;;5.28;100.00
71457;BME280;59263;48.160;11.752;2023-12-14T08:56:09;95626.97;;;5.27;100.00
71457;BME280;59263;48.160;11.752;2023-12-14T08:58:35;95625.31;;;5.26;100.00
71457;BME280;59263;48.160;11.752;2023-12-14T09:01:01;95633.34;;;5.21;100.00
71457;BME280;59263;48.160;11.752;2023-12-14T09:03:26;95632.53;;;5.21;100.00
71457;BME280;59263;48.160;11.752;2023-12-14T09:05:51;95635.81;;;5.23;100.00
71457;BME280;59263;48.160;11.752;2023-12-14T09:08:17;95625.78;;;5.20;100.00
71457;BME280;59263;48.160;11.752;2023-12-14T09:10:43;95646.75;;;5.25;100.00
71457;BME280;59263;48.160;11.752;2023-12-14T09:13:08;95633.94;;;5.25;100.00
71457;BME280;59263;48.160;11.752;2023-12-14T09:15:34;95650.28;;;5.35;100.00
71457;BME280;59263;48.160;11.752;2023-12-14T09:17:59;95653.31;;;5.40;100.00
71457;BME280;59263;48.160;11.752;2023-12-14T09:20:25;95652.72;;;5.37;100.00
71457;BME280;59263;48.160;11.752;2023-12-14T09:22:50;95660.78;;;5.32;100.00
71457;BME280;59263;48.160;11.752;2023-12-14T09:25:16;95663.56;;;5.40;100.00
71457;BME280;59263;48.160;11.752;2023-12-14T09:27:41;95661.50;;;5.45;100.00
71457;BME280;59263;48.160;11.752;2023-12-14T09:30:07;95666.16;;;5.51;100.00
71457;BME280;59263;48.160;11.752;2023-12-14T09:32:33;95664.41;;;5.63;100.00
71457;BME280;59263;48.160;11.752;2023-12-14T09:34:58;95660.34;;;5.61;100.00
71457;BME280;59263;48.160;11.752;2023-12-14T09:37:24;95667.31;;;5.58;100.00
71457;BME280;59263;48.160;11.752;2023-12-14T09:39:50;95670.81;;;5.46;100.00
71457;BME280;59263;48.160;11.752;2023-12-14T09:42:18;95672.00;;;5.53;100.00
71457;BME280;59263;48.160;11.752;2023-12-14T09:44:46;95691.34;;;5.57;100.00
71457;BME280;59263;48.160;11.752;2023-12-14T09:47:12;95681.66;;;5.50;100.00
71457;BME280;59263;48.160;11.752;2023-12-14T09:49:38;95691.09;;;5.38;100.00
71457;BME280;59263;48.160;11.752;2023-12-14T09:52:06;95689.44;;;5.37;100.00
71457;BME280;59263;48.160;11.752;2023-12-14T09:54:31;95700.88;;;5.44;100.00
71457;BME280;59263;48.160;11.752;2023-12-14T09:56:57;95700.84;;;5.22;100.00
71457;BME280;59263;48.160;11.752;2023-12-14T09:59:22;95700.03;;;5.21;100.00
71457;BME280;59263;48.160;11.752;2023-12-14T10:01:47;95706.66;;;5.13;100.00
71457;BME280;59263;48.160;11.752;2023-12-14T10:04:16;95711.31;;;5.19;100.00
71457;BME280;59263;48.160;11.752;2023-12-14T10:06:44;95714.97;;;5.16;100.00
71457;BME280;59263;48.160;11.752;2023-12-14T10:09:10;95704.69;;;5.16;100.00
71457;BME280;59263;48.160;11.752;2023-12-14T10:11:40;95712.78;;;5.23;100.00
71457;BME280;59263;48.160;11.752;2023-12-14T10:14:22;95719.31;;;5.27;100.00
71457;BME280;59263;48.160;11.752;2023-12-14T10:16:50;95726.28;;;5.25;100.00
71457;BME280;59263;48.160;11.752;2023-12-14T10:19:17;95717.19;;;5.32;100.00
71457;BME280;59263;48.160;11.752;2023-12-14T10:21:43;95725.88;;;5.42;100.00
71457;BME280;59263;48.160;11.752;2023-12-14T10:24:08;95721.19;;;5.47;100.00
71457;BME280;59263;48.160;11.752;2023-12-14T10:26:35;95717.69;;;5.48;100.00
71457;BME280;59263;48.160;11.752;2023-12-14T10:29:01;95724.69;;;5.46;100.00
71457;BME280;59263;48.160;11.752;2023-12-14T10:31:30;95723.53;;;5.39;100.00
71457;BME280;59263;48.160;11.752;2023-12-14T10:33:55;95726.06;;;5.28;100.00
71457;BME280;59263;48.160;11.752;2023-12-14T10:36:25;95727.31;;;5.22;100.00
71457;BME280;59263;48.160;11.752;2023-12-14T10:38:56;95736.84;;;5.09;100.00
71457;BME280;59263;48.160;11.752;2023-12-14T10:41:23;95730.56;;;4.89;100.00
71457;BME280;59263;48.160;11.752;2023-12-14T10:43:50;95738.94;;;4.80;100.00
71457;BME280;59263;48.160;11.752;2023-12-14T10:46:19;95734.50;;;4.82;100.00
71457;BME280;59263;48.160;11.752;2023-12-14T10:48:47;95738.22;;;4.78;100.00
71457;BME280;59263;48.160;11.752;2023-12-14T10:51:13;95746.41;;;4.83;100.00
71457;BME280;59263;48.160;11.752;2023-12-14T10:53:40;95744.53;;;4.85;100.00
71457;BME280;59263;48.160;11.752;2023-12-14T10:56:10;95753.28;;;4.82;100.00
71457;BME280;59263;48.160;11.752;2023-12-14T10:58:57;95761.72;;;4.96;100.00
71457;BME280;59263;48.160;11.752;2023-12-14T11:01:23;95756.97;;;5.02;100.00
71457;BME280;59263;48.160;11.752;2023-12-14T11:03:50;95750.19;;;4.90;100.00
71457;BME280;59263;48.160;11.752;2023-12-14T11:06:32;95773.53;;;4.98;100.00
71457;BME280;59263;48.160;11.752;2023-12-14T11:11:28;95767.09;;;5.28;100.00
71457;BME280;59263;48.160;11.752;2023-12-14T11:13:53;95773.44;;;5.46;100.00
71457;BME280;59263;48.160;11.752;2023-12-14T11:16:26;95767.84;;;5.52;100.00
71457;BME280;59263;48.160;11.752;2023-12-14T11:24:30;95766.94;;;5.53;100.00
71457;BME280;59263;48.160;11.752;2023-12-14T11:26:55;95773.47;;;5.57;100.00
71457;BME280;59263;48.160;11.752;2023-12-14T11:29:20;95777.81;;;5.57;100.00
71457;BME280;59263;48.160;11.752;2023-12-14T11:31:47;95778.16;;;5.64;100.00
71457;BME280;59263;48.160;11.752;2023-12-14T11:34:14;95783.53;;;5.61;100.00
71457;BME280;59263;48.160;11.752;2023-12-14T11:36:40;95788.88;;;5.57;100.00
71457;BME280;59263;48.160;11.752;2023-12-14T11:39:09;95795.75;;;5.46;100.00
71457;BME280;59263;48.160;11.752;2023-12-14T11:41:35;95799.59;;;5.51;100.00
71457;BME280;59263;48.160;11.752;2023-12-14T11:44:01;95794.22;;;5.54;100.00
71457;BME280;59263;48.160;11.752;2023-12-14T11:46:28;95780.97;;;5.72;100.00
71457;BME280;59263;48.160;11.752;2023-12-14T11:48:56;95797.91;;;5.86;100.00
71457;BME280;59263;48.160;11.752;2023-12-14T11:51:21;95794.66;;;5.83;100.00
71457;BME280;59263;48.160;11.752;2023-12-14T11:53:47;95800.00;;;5.80;100.00
71457;BME280;59263;48.160;11.752;2023-12-14T11:56:19;95801.97;;;5.77;100.00
71457;BME280;59263;48.160;11.752;2023-12-14T11:58:45;95808.72;;;5.67;100.00
71457;BME280;59263;48.160;11.752;2023-12-14T12:01:18;95806.88;;;5.69;100.00
71457;BME280;59263;48.160;11.752;2023-12-14T12:03:45;95806.25;;;6.00;100.00
71457;BME280;59263;48.160;11.752;2023-12-14T12:06:24;95805.09;;;6.04;100.00
71457;BME280;59263;48.160;11.752;2023-12-14T12:08:51;95804.25;;;6.15;100.00
71457;BME280;59263;48.160;11.752;2023-12-14T12:11:21;95808.59;;;6.15;100.00
71457;BME280;59263;48.160;11.752;2023-12-14T12:13:54;95795.16;;;6.00;100.00
71457;BME280;59263;48.160;11.752;2023-12-14T12:16:20;95801.59;;;6.17;100.00
71457;BME280;59263;48.160;11.752;2023-12-14T12:18:46;95805.09;;;6.27;100.00
71457;BME280;59263;48.160;11.752;2023-12-14T12:21:12;95804.41;;;6.25;100.00
71457;BME280;59263;48.160;11.752;2023-12-14T12:23:37;95803.69;;;6.23;100.00
71457;BME280;59263;48.160;11.752;2023-12-14T12:26:03;95805.78;;;6.18;100.00
71457;BME280;59263;48.160;11.752;2023-12-14T12:28:30;95800.06;;;6.14;100.00
71457;BME280;59263;48.160;11.752;2023-12-14T12:30:55;95810.94;;;6.06;100.00
71457;BME280;59263;48.160;11.752;2023-12-14T12:33:21;95813.50;;;6.18;100.00
71457;BME280;59263;48.160;11.752;2023-12-14T12:35:46;95809.97;;;5.96;100.00
71457;BME280;59263;48.160;11.752;2023-12-14T12:38:11;95815.38;;;5.93;100.00
71457;BME280;59263;48.160;11.752;2023-12-14T12:40:37;95823.53;;;6.21;100.00
71457;BME280;59263;48.160;11.752;2023-12-14T12:43:02;95821.06;;;6.08;100.00
71457;BME280;59263;48.160;11.752;2023-12-14T12:45:28;95832.19;;;6.20;100.00
71457;BME280;59263;48.160;11.752;2023-12-14T12:47:54;95829.13;;;6.15;100.00
71457;BME280;59263;48.160;11.752;2023-12-14T12:50:19;95822.16;;;6.28;100.00
71457;BME280;59263;48.160;11.752;2023-12-14T12:52:45;95822.59;;;6.33;100.00